METAR Data
IDs: Format: Raw Decoded Include TAF

Data at: 1507 UTC 10 Aug 2022

KOAK 101453Z 25005KT 10SM BKN016 BKN021 18/14 A3008 RMK AO2 SLP185 T01780144 53015
KOAK 101353Z 00000KT 10SM FEW008 BKN014 18/14 A3006 RMK AO2 SLP179 T01780144
KOAK 101253Z 28003KT 10SM FEW008 BKN014 18/14 A3005 RMK AO2 SLP175 T01780144
KOAK 101153Z 26005KT 10SM FEW008 BKN014 17/14 A3004 RMK AO2 SLP170 T01720144 10189 20172 55001
KOAK 101053Z 27008KT 10SM SCT010 BKN014 18/14 A3003 RMK AO2 SLP169 T01780144
KOAK 100953Z 27010KT 10SM BKN014 18/14 A3004 RMK AO2 SLP170 T01780144
KOAK 100946Z COR 28009KT 10SM BKN014 18/14 A3004 RMK AO2 T01780144
KOAK 100939Z COR 29008KT 10SM SCT009 BKN014 18/14 A3004 RMK AO2 T01780144
KOAK 100853Z 27009KT 10SM FEW008 BKN014 18/14 A3004 RMK AO2 SLP171 T01780144 51001
KOAK 100753Z 28010KT 10SM SCT008 BKN014 18/14 A3004 RMK AO2 SLP170 T01780144 402390167
KOAK 100709Z 29008KT 10SM SCT008 BKN012 18/14 A3004 RMK AO2 T01780144
KOAK 100653Z 27010KT 10SM SCT008 SCT012 18/15 A3004 RMK AO2 SLP172 T01780150
KOAK 100610Z 27008KT 10SM FEW008 SCT012 18/14 A3004 RMK AO2 T01780144
KOAK 100553Z 27009KT 10SM FEW014 18/14 A3004 RMK AO2 SLP170 T01830144 10228 20183 53015
KOAK 100453Z 27008KT 10SM FEW010 18/15 A3002 RMK AO2 SLP166 T01830150
KOAK 100422Z 27013KT 10SM SCT008 18/15 A3001 RMK AO2 T01830150
KOAK 100353Z 27012KT 10SM FEW010 18/15 A2999 RMK AO2 SLP155 T01830150
KOAK 100253Z 26016KT 10SM FEW010 19/15 A2999 RMK AO2 SLP155 T01890150 53005
KOAK 100153Z 27014KT 10SM FEW012 FEW050 21/14 A2998 RMK AO2 SLP152 T02060144
KOAK 100053Z 27016G22KT 10SM FEW012 FEW050 22/14 A2998 RMK AO2 SLP152 T02170139
KOAK 092353Z 27017KT 10SM FEW014 FEW080 22/14 A2998 RMK AO2 PK WND 25027/2333 SLP151 T02220144 10239 20211 56007
KOAK 092253Z 27017KT 10SM FEW012 FEW120 23/14 A2998 RMK AO2 SLP151 T02330144
KOAK 092153Z 28015KT 10SM FEW012 FEW120 23/14 A2998 RMK AO2 SLP153 T02330139
KOAK 092053Z 27013KT 10SM FEW013 FEW018 23/14 A3000 RMK AO2 SLP158 T02280139 58004
KOAK 091953Z 26013KT 10SM FEW013 FEW018 23/14 A3001 RMK AO2 SLP162 T02280139
KOAK 091853Z 25012KT 10SM FEW013 FEW018 21/14 A3002 RMK AO2 SLP164 T02110139
KOAK 091753Z 25011KT 10SM FEW013 FEW016 21/14 A3001 RMK AO2 SLP162 T02110139 10211 20167 51004
KOAK 091653Z 25009KT 10SM FEW013 SCT016 20/14 A3001 RMK AO2 SLP161 T02000144
KOAK 091553Z 25012KT 10SM FEW010 SCT016 19/14 A3001 RMK AO2 SLP161 T01890144
KOAK 091453Z 27010KT 10SM FEW009 BKN016 18/14 A3000 RMK AO2 SLP158 T01780139 51009
KOAK 091353Z 28013KT 10SM FEW009 BKN015 17/14 A3000 RMK AO2 SLP157 T01720139
KOAK 091253Z 27012KT 10SM FEW008 BKN012 17/14 A2998 RMK AO2 SLP151 T01720139
KOAK 091153Z 27011KT 10SM FEW008 BKN012 17/14 A2997 RMK AO2 SLP149 T01670139 10172 20167 55002
KOAK 091053Z 27011KT 10SM FEW008 BKN012 17/14 A2997 RMK AO2 SLP147 T01720144
KOAK 090953Z 27015KT 10SM FEW008 BKN011 17/14 A2997 RMK AO2 SLP148 T01720144
KOAK 090853Z 26011KT 10SM FEW008 BKN012 17/14 A2998 RMK AO2 SLP151 T01720144 58002
KOAK 090753Z 26009KT 10SM FEW008 SCT010 BKN012 17/14 A2999 RMK AO2 SLP154 T01720144 402330161
KOAK 090653Z 26010KT 10SM FEW008 BKN010 BKN012 17/15 A2998 RMK AO2 SLP152 T01720150
KOAK 090623Z 26010KT 10SM FEW008 SCT010 BKN012 17/14 A2998 RMK AO2 T01720144
KOAK 090553Z 26013KT 10SM FEW008 SCT012 17/14 A2999 RMK AO2 SLP153 T01720144 10222 20172 51008
KOAK 090453Z 27011KT 10SM FEW010 18/14 A2998 RMK AO2 SLP151 T01780144
KOAK 090353Z 27014KT 10SM FEW010 18/15 A2998 RMK AO2 SLP149 T01780150